sensor_id;sensor_type;location;lat;lon;timestamp;temperature;humidity
7046;DHT22;3564;53.326;10.356;2022-10-15T00:01:14;17.90;99.90
7046;DHT22;3564;53.326;10.356;2022-10-15T00:03:42;17.90;99.90
7046;DHT22;3564;53.326;10.356;2022-10-15T00:06:14;17.90;99.90
7046;DHT22;3564;53.326;10.356;2022-10-15T00:08:40;17.90;99.90
7046;DHT22;3564;53.326;10.356;2022-10-15T00:11:15;17.90;99.90
7046;DHT22;3564;53.326;10.356;2022-10-15T00:13:41;17.90;99.90
7046;DHT22;3564;53.326;10.356;2022-10-15T00:16:14;17.90;99.90
7046;DHT22;3564;53.326;10.356;2022-10-15T00:18:40;17.90;99.90
7046;DHT22;3564;53.326;10.356;2022-10-15T00:21:08;17.80;99.90
7046;DHT22;3564;53.326;10.356;2022-10-15T00:23:35;17.80;99.90
7046;DHT22;3564;53.326;10.356;2022-10-15T00:26:03;17.90;99.90
7046;DHT22;3564;53.326;10.356;2022-10-15T00:28:29;17.80;99.90
7046;DHT22;3564;53.326;10.356;2022-10-15T00:31:00;17.80;99.90
7046;DHT22;3564;53.326;10.356;2022-10-15T00:33:26;17.80;99.90
7046;DHT22;3564;53.326;10.356;2022-10-15T00:36:10;17.80;99.90
7046;DHT22;3564;53.326;10.356;2022-10-15T00:38:51;17.80;99.90
7046;DHT22;3564;53.326;10.356;2022-10-15T00:41:20;17.80;99.90
7046;DHT22;3564;53.326;10.356;2022-10-15T00:43:52;17.80;99.90
7046;DHT22;3564;53.326;10.356;2022-10-15T00:46:26;17.80;99.90
7046;DHT22;3564;53.326;10.356;2022-10-15T00:51:36;17.80;99.90
7046;DHT22;3564;53.326;10.356;2022-10-15T00:54:04;17.80;99.90
7046;DHT22;3564;53.326;10.356;2022-10-15T00:56:31;17.80;99.90
7046;DHT22;3564;53.326;10.356;2022-10-15T00:58:57;17.80;99.90
7046;DHT22;3564;53.326;10.356;2022-10-15T01:01:23;17.70;99.90
7046;DHT22;3564;53.326;10.356;2022-10-15T01:03:52;17.80;99.90
7046;DHT22;3564;53.326;10.356;2022-10-15T01:06:19;17.70;99.90
7046;DHT22;3564;53.326;10.356;2022-10-15T01:08:45;17.80;99.90
7046;DHT22;3564;53.326;10.356;2022-10-15T01:11:33;17.80;99.90
7046;DHT22;3564;53.326;10.356;2022-10-15T01:17:20;17.70;99.90
7046;DHT22;3564;53.326;10.356;2022-10-15T01:26:24;17.70;99.90
7046;DHT22;3564;53.326;10.356;2022-10-15T01:29:05;17.60;99.90
7046;DHT22;3564;53.326;10.356;2022-10-15T01:34:31;17.60;99.90
7046;DHT22;3564;53.326;10.356;2022-10-15T01:39:52;17.50;99.90
7046;DHT22;3564;53.326;10.356;2022-10-15T01:42:29;17.50;99.90
7046;DHT22;3564;53.326;10.356;2022-10-15T01:45:06;17.50;99.90
7046;DHT22;3564;53.326;10.356;2022-10-15T01:47:53;17.50;99.90
7046;DHT22;3564;53.326;10.356;2022-10-15T01:50:23;17.50;99.90
7046;DHT22;3564;53.326;10.356;2022-10-15T01:52:50;17.50;99.90
7046;DHT22;3564;53.326;10.356;2022-10-15T01:55:18;17.50;99.90
7046;DHT22;3564;53.326;10.356;2022-10-15T01:57:46;17.40;99.90
7046;DHT22;3564;53.326;10.356;2022-10-15T02:00:12;17.40;99.90
7046;DHT22;3564;53.326;10.356;2022-10-15T02:02:38;17.40;99.90
7046;DHT22;3564;53.326;10.356;2022-10-15T02:05:05;17.40;99.90
7046;DHT22;3564;53.326;10.356;2022-10-15T02:10:33;17.40;99.90
7046;DHT22;3564;53.326;10.356;2022-10-15T02:18:57;17.30;99.90
7046;DHT22;3564;53.326;10.356;2022-10-15T02:24:24;17.30;99.90
7046;DHT22;3564;53.326;10.356;2022-10-15T02:26:53;17.40;99.90
7046;DHT22;3564;53.326;10.356;2022-10-15T02:29:23;17.30;99.90
7046;DHT22;3564;53.326;10.356;2022-10-15T02:31:55;17.30;99.90
7046;DHT22;3564;53.326;10.356;2022-10-15T02:34:25;17.30;99.90
7046;DHT22;3564;53.326;10.356;2022-10-15T02:36:52;17.30;99.90
7046;DHT22;3564;53.326;10.356;2022-10-15T02:39:21;17.30;99.90
7046;DHT22;3564;53.326;10.356;2022-10-15T02:41:49;17.20;99.90
7046;DHT22;3564;53.326;10.356;2022-10-15T02:44:15;17.20;99.90
7046;DHT22;3564;53.326;10.356;2022-10-15T02:46:42;17.10;99.90
7046;DHT22;3564;53.326;10.356;2022-10-15T02:49:08;17.00;99.90
7046;DHT22;3564;53.326;10.356;2022-10-15T02:51:35;17.00;99.90
7046;DHT22;3564;53.326;10.356;2022-10-15T02:54:04;16.90;99.90
7046;DHT22;3564;53.326;10.356;2022-10-15T02:56:31;16.90;99.90
7046;DHT22;3564;53.326;10.356;2022-10-15T02:58:57;16.90;99.90
7046;DHT22;3564;53.326;10.356;2022-10-15T03:01:24;16.80;99.90
7046;DHT22;3564;53.326;10.356;2022-10-15T03:03:52;16.80;99.90
7046;DHT22;3564;53.326;10.356;2022-10-15T03:06:18;16.70;99.90
7046;DHT22;3564;53.326;10.356;2022-10-15T03:08:43;16.70;99.90
7046;DHT22;3564;53.326;10.356;2022-10-15T03:11:10;16.70;99.90
7046;DHT22;3564;53.326;10.356;2022-10-15T03:13:39;16.70;99.90
7046;DHT22;3564;53.326;10.356;2022-10-15T03:16:07;16.80;99.90
7046;DHT22;3564;53.326;10.356;2022-10-15T03:18:33;16.70;99.90
7046;DHT22;3564;53.326;10.356;2022-10-15T03:21:00;16.80;99.90
7046;DHT22;3564;53.326;10.356;2022-10-15T03:23:26;16.70;99.90
7046;DHT22;3564;53.326;10.356;2022-10-15T03:25:52;16.70;99.90
7046;DHT22;3564;53.326;10.356;2022-10-15T03:28:19;16.70;99.90
7046;DHT22;3564;53.326;10.356;2022-10-15T03:30:44;16.70;99.90
7046;DHT22;3564;53.326;10.356;2022-10-15T03:33:10;16.70;99.90
7046;DHT22;3564;53.326;10.356;2022-10-15T03:35:35;16.70;99.90
7046;DHT22;3564;53.326;10.356;2022-10-15T03:38:02;16.70;99.90
7046;DHT22;3564;53.326;10.356;2022-10-15T03:40:29;16.70;99.90
7046;DHT22;3564;53.326;10.356;2022-10-15T03:42:54;16.60;99.90
7046;DHT22;3564;53.326;10.356;2022-10-15T03:45:21;16.60;99.90
7046;DHT22;3564;53.326;10.356;2022-10-15T03:47:47;16.60;99.90
7046;DHT22;3564;53.326;10.356;2022-10-15T03:50:13;16.60;99.90
7046;DHT22;3564;53.326;10.356;2022-10-15T03:52:39;16.50;99.90
7046;DHT22;3564;53.326;10.356;2022-10-15T03:55:05;16.50;99.90
7046;DHT22;3564;53.326;10.356;2022-10-15T03:57:32;16.50;99.90
7046;DHT22;3564;53.326;10.356;2022-10-15T03:59:58;16.50;99.90
7046;DHT22;3564;53.326;10.356;2022-10-15T04:02:24;16.50;99.90
7046;DHT22;3564;53.326;10.356;2022-10-15T04:04:53;16.50;99.90
7046;DHT22;3564;53.326;10.356;2022-10-15T04:07:20;16.50;99.90
7046;DHT22;3564;53.326;10.356;2022-10-15T04:09:46;16.50;99.90
7046;DHT22;3564;53.326;10.356;2022-10-15T04:12:11;16.50;99.90
7046;DHT22;3564;53.326;10.356;2022-10-15T04:14:37;16.50;99.90
7046;DHT22;3564;53.326;10.356;2022-10-15T04:17:02;16.50;99.90
7046;DHT22;3564;53.326;10.356;2022-10-15T04:19:28;16.50;99.90
7046;DHT22;3564;53.326;10.356;2022-10-15T04:21:54;16.40;99.90
7046;DHT22;3564;53.326;10.356;2022-10-15T04:24:20;16.40;99.90
7046;DHT22;3564;53.326;10.356;2022-10-15T04:26:46;16.40;99.90
7046;DHT22;3564;53.326;10.356;2022-10-15T04:29:16;16.40;99.90
7046;DHT22;3564;53.326;10.356;2022-10-15T04:31:42;16.40;99.90
7046;DHT22;3564;53.326;10.356;2022-10-15T04:34:07;16.40;99.90
7046;DHT22;3564;53.326;10.356;2022-10-15T04:36:34;16.30;99.90
7046;DHT22;3564;53.326;10.356;2022-10-15T04:39:00;16.30;99.90
7046;DHT22;3564;53.326;10.356;2022-10-15T04:41:26;16.30;99.90
7046;DHT22;3564;53.326;10.356;2022-10-15T04:43:52;16.30;99.90
7046;DHT22;3564;53.326;10.356;2022-10-15T04:46:17;16.30;99.90
7046;DHT22;3564;53.326;10.356;2022-10-15T04:48:44;16.30;99.90
7046;DHT22;3564;53.326;10.356;2022-10-15T04:51:15;16.30;99.90
7046;DHT22;3564;53.326;10.356;2022-10-15T04:53:41;16.30;99.90
7046;DHT22;3564;53.326;10.356;2022-10-15T04:56:10;16.30;99.90
7046;DHT22;3564;53.326;10.356;2022-10-15T04:58:41;16.20;99.90
7046;DHT22;3564;53.326;10.356;2022-10-15T05:01:09;16.20;99.90
7046;DHT22;3564;53.326;10.356;2022-10-15T05:03:38;16.20;99.90
7046;DHT22;3564;53.326;10.356;2022-10-15T05:06:12;16.20;99.90
7046;DHT22;3564;53.326;10.356;2022-10-15T05:08:40;16.20;99.90
7046;DHT22;3564;53.326;10.356;2022-10-15T05:11:12;16.20;99.90
7046;DHT22;3564;53.326;10.356;2022-10-15T05:13:38;16.20;99.90
7046;DHT22;3564;53.326;10.356;2022-10-15T05:16:15;16.20;99.90
7046;DHT22;3564;53.326;10.356;2022-10-15T05:18:42;16.20;99.90
7046;DHT22;3564;53.326;10.356;2022-10-15T05:21:09;16.20;99.90
7046;DHT22;3564;53.326;10.356;2022-10-15T05:23:35;16.20;99.90
7046;DHT22;3564;53.326;10.356;2022-10-15T05:26:06;16.20;99.90
7046;DHT22;3564;53.326;10.356;2022-10-15T05:28:32;16.20;99.90
7046;DHT22;3564;53.326;10.356;2022-10-15T05:31:04;16.20;99.90
7046;DHT22;3564;53.326;10.356;2022-10-15T05:33:30;16.10;99.90
7046;DHT22;3564;53.326;10.356;2022-10-15T05:35:55;16.10;99.90
7046;DHT22;3564;53.326;10.356;2022-10-15T05:38:21;16.10;99.90
7046;DHT22;3564;53.326;10.356;2022-10-15T05:40:48;16.10;99.90
7046;DHT22;3564;53.326;10.356;2022-10-15T05:43:13;16.10;99.90
7046;DHT22;3564;53.326;10.356;2022-10-15T05:45:40;16.10;99.90
7046;DHT22;3564;53.326;10.356;2022-10-15T05:48:06;16.10;99.90
7046;DHT22;3564;53.326;10.356;2022-10-15T05:50:32;16.10;99.90
7046;DHT22;3564;53.326;10.356;2022-10-15T05:52:57;16.10;99.90
7046;DHT22;3564;53.326;10.356;2022-10-15T05:55:23;16.20;99.90
7046;DHT22;3564;53.326;10.356;2022-10-15T05:57:48;16.20;99.90
7046;DHT22;3564;53.326;10.356;2022-10-15T06:00:14;16.20;99.90
7046;DHT22;3564;53.326;10.356;2022-10-15T06:02:40;16.30;99.90
7046;DHT22;3564;53.326;10.356;2022-10-15T06:05:06;16.30;99.90
7046;DHT22;3564;53.326;10.356;2022-10-15T06:07:33;16.30;99.90
7046;DHT22;3564;53.326;10.356;2022-10-15T06:09:59;16.40;99.90
7046;DHT22;3564;53.326;10.356;2022-10-15T06:12:24;16.40;99.90
7046;DHT22;3564;53.326;10.356;2022-10-15T06:14:50;16.40;99.90
7046;DHT22;3564;53.326;10.356;2022-10-15T06:17:15;16.40;99.90
7046;DHT22;3564;53.326;10.356;2022-10-15T06:19:41;16.40;99.90
7046;DHT22;3564;53.326;10.356;2022-10-15T06:22:06;16.40;99.90
7046;DHT22;3564;53.326;10.356;2022-10-15T06:24:32;16.40;99.90
7046;DHT22;3564;53.326;10.356;2022-10-15T06:26:58;16.40;99.90
7046;DHT22;3564;53.326;10.356;2022-10-15T06:29:24;16.40;99.90
7046;DHT22;3564;53.326;10.356;2022-10-15T06:31:49;16.40;99.90
7046;DHT22;3564;53.326;10.356;2022-10-15T06:34:15;16.40;99.90
7046;DHT22;3564;53.326;10.356;2022-10-15T06:36:40;16.40;99.90
7046;DHT22;3564;53.326;10.356;2022-10-15T06:39:06;16.40;99.90
7046;DHT22;3564;53.326;10.356;2022-10-15T06:41:32;16.40;99.90
7046;DHT22;3564;53.326;10.356;2022-10-15T06:43:57;16.40;99.90
7046;DHT22;3564;53.326;10.356;2022-10-15T06:46:23;16.30;99.90
7046;DHT22;3564;53.326;10.356;2022-10-15T06:48:48;16.30;99.90
7046;DHT22;3564;53.326;10.356;2022-10-15T06:51:16;16.30;99.90
7046;DHT22;3564;53.326;10.356;2022-10-15T06:53:42;16.30;99.90
7046;DHT22;3564;53.326;10.356;2022-10-15T06:56:08;16.40;99.90
7046;DHT22;3564;53.326;10.356;2022-10-15T06:58:34;16.40;99.90
7046;DHT22;3564;53.326;10.356;2022-10-15T07:01:04;16.40;99.90
7046;DHT22;3564;53.326;10.356;2022-10-15T07:03:33;16.50;99.90
7046;DHT22;3564;53.326;10.356;2022-10-15T07:06:02;16.50;99.90
7046;DHT22;3564;53.326;10.356;2022-10-15T07:08:28;16.50;99.90
7046;DHT22;3564;53.326;10.356;2022-10-15T07:10:54;16.50;99.90
7046;DHT22;3564;53.326;10.356;2022-10-15T07:13:19;16.50;99.90
7046;DHT22;3564;53.326;10.356;2022-10-15T07:15:45;16.60;99.90
7046;DHT22;3564;53.326;10.356;2022-10-15T07:18:14;16.60;99.90
7046;DHT22;3564;53.326;10.356;2022-10-15T07:20:39;16.60;99.90
7046;DHT22;3564;53.326;10.356;2022-10-15T07:23:05;16.60;99.90
7046;DHT22;3564;53.326;10.356;2022-10-15T07:25:30;16.60;99.90
7046;DHT22;3564;53.326;10.356;2022-10-15T07:27:57;16.60;99.90
7046;DHT22;3564;53.326;10.356;2022-10-15T07:30:24;16.60;99.90
7046;DHT22;3564;53.326;10.356;2022-10-15T07:32:55;16.60;99.90
7046;DHT22;3564;53.326;10.356;2022-10-15T07:35:21;16.60;99.90
7046;DHT22;3564;53.326;10.356;2022-10-15T07:37:46;16.60;99.90
7046;DHT22;3564;53.326;10.356;2022-10-15T07:40:13;16.60;99.90
7046;DHT22;3564;53.326;10.356;2022-10-15T07:42:38;16.70;99.90
7046;DHT22;3564;53.326;10.356;2022-10-15T07:45:05;16.70;99.90
7046;DHT22;3564;53.326;10.356;2022-10-15T07:47:31;16.80;99.90
7046;DHT22;3564;53.326;10.356;2022-10-15T07:49:58;16.80;99.90
7046;DHT22;3564;53.326;10.356;2022-10-15T07:52:23;16.80;99.90
7046;DHT22;3564;53.326;10.356;2022-10-15T07:54:49;16.90;99.90
7046;DHT22;3564;53.326;10.356;2022-10-15T07:57:15;16.90;99.90
7046;DHT22;3564;53.326;10.356;2022-10-15T07:59:41;16.90;99.90
7046;DHT22;3564;53.326;10.356;2022-10-15T08:02:13;16.80;99.90
7046;DHT22;3564;53.326;10.356;2022-10-15T08:04:39;16.90;99.90
7046;DHT22;3564;53.326;10.356;2022-10-15T08:07:04;16.80;99.90
7046;DHT22;3564;53.326;10.356;2022-10-15T08:09:30;16.80;99.90
7046;DHT22;3564;53.326;10.356;2022-10-15T08:11:55;16.80;99.90
7046;DHT22;3564;53.326;10.356;2022-10-15T08:14:21;16.90;99.90
7046;DHT22;3564;53.326;10.356;2022-10-15T08:16:47;16.90;99.90
7046;DHT22;3564;53.326;10.356;2022-10-15T08:19:12;16.90;99.90
7046;DHT22;3564;53.326;10.356;2022-10-15T08:21:42;17.00;99.90
7046;DHT22;3564;53.326;10.356;2022-10-15T08:24:08;16.90;99.90
7046;DHT22;3564;53.326;10.356;2022-10-15T08:26:33;17.00;99.90
7046;DHT22;3564;53.326;10.356;2022-10-15T08:28:59;16.90;99.90
7046;DHT22;3564;53.326;10.356;2022-10-15T08:31:25;16.90;99.90
7046;DHT22;3564;53.326;10.356;2022-10-15T08:33:50;16.90;99.90
7046;DHT22;3564;53.326;10.356;2022-10-15T08:36:17;16.90;99.90
7046;DHT22;3564;53.326;10.356;2022-10-15T08:38:43;16.90;99.90
7046;DHT22;3564;53.326;10.356;2022-10-15T08:41:33;17.00;99.90
7046;DHT22;3564;53.326;10.356;2022-10-15T08:44:01;17.00;99.90
7046;DHT22;3564;53.326;10.356;2022-10-15T08:46:36;17.10;99.90
7046;DHT22;3564;53.326;10.356;2022-10-15T08:49:04;17.10;99.90
7046;DHT22;3564;53.326;10.356;2022-10-15T08:51:41;17.10;99.90
7046;DHT22;3564;53.326;10.356;2022-10-15T08:54:15;17.20;99.90
7046;DHT22;3564;53.326;10.356;2022-10-15T08:56:47;17.20;99.90
7046;DHT22;3564;53.326;10.356;2022-10-15T08:59:39;17.30;99.90
7046;DHT22;3564;53.326;10.356;2022-10-15T09:02:40;17.30;99.90
7046;DHT22;3564;53.326;10.356;2022-10-15T09:05:35;17.30;99.90
7046;DHT22;3564;53.326;10.356;2022-10-15T09:08:20;17.30;99.90
7046;DHT22;3564;53.326;10.356;2022-10-15T09:13:50;17.50;99.90
7046;DHT22;3564;53.326;10.356;2022-10-15T09:16:21;17.50;99.90
7046;DHT22;3564;53.326;10.356;2022-10-15T09:18:49;17.60;99.90
7046;DHT22;3564;53.326;10.356;2022-10-15T09:21:17;17.70;99.90
7046;DHT22;3564;53.326;10.356;2022-10-15T09:23:43;17.70;99.90
7046;DHT22;3564;53.326;10.356;2022-10-15T09:29:23;17.80;99.90
7046;DHT22;3564;53.326;10.356;2022-10-15T09:32:00;17.80;99.90
7046;DHT22;3564;53.326;10.356;2022-10-15T09:37:25;18.00;99.90
7046;DHT22;3564;53.326;10.356;2022-10-15T09:42:48;18.10;99.90
7046;DHT22;3564;53.326;10.356;2022-10-15T09:45:16;18.10;99.90
7046;DHT22;3564;53.326;10.356;2022-10-15T09:47:43;18.20;99.90
7046;DHT22;3564;53.326;10.356;2022-10-15T09:50:11;18.20;99.90
7046;DHT22;3564;53.326;10.356;2022-10-15T09:53:03;18.20;99.90
7046;DHT22;3564;53.326;10.356;2022-10-15T09:56:01;18.30;99.90
7046;DHT22;3564;53.326;10.356;2022-10-15T09:58:54;18.40;99.90
7046;DHT22;3564;53.326;10.356;2022-10-15T10:01:26;18.40;99.90
7046;DHT22;3564;53.326;10.356;2022-10-15T10:03:54;18.40;99.90
7046;DHT22;3564;53.326;10.356;2022-10-15T10:06:46;18.50;99.90
7046;DHT22;3564;53.326;10.356;2022-10-15T10:09:20;18.50;99.90
7046;DHT22;3564;53.326;10.356;2022-10-15T10:12:07;18.60;99.90
7046;DHT22;3564;53.326;10.356;2022-10-15T10:14:55;18.70;99.90
7046;DHT22;3564;53.326;10.356;2022-10-15T10:17:24;18.70;99.90
7046;DHT22;3564;53.326;10.356;2022-10-15T10:22:49;18.80;99.90
7046;DHT22;3564;53.326;10.356;2022-10-15T10:33:09;19.20;99.90
7046;DHT22;3564;53.326;10.356;2022-10-15T10:35:45;19.20;99.90
7046;DHT22;3564;53.326;10.356;2022-10-15T10:38:29;19.40;99.90
7046;DHT22;3564;53.326;10.356;2022-10-15T10:40:58;19.50;99.90
7046;DHT22;3564;53.326;10.356;2022-10-15T10:43:29;19.50;99.90
7046;DHT22;3564;53.326;10.356;2022-10-15T10:46:20;19.70;99.90
7046;DHT22;3564;53.326;10.356;2022-10-15T10:48:50;19.70;99.90
7046;DHT22;3564;53.326;10.356;2022-10-15T10:51:22;19.80;99.90
7046;DHT22;3564;53.326;10.356;2022-10-15T10:54:05;19.90;99.90
7046;DHT22;3564;53.326;10.356;2022-10-15T10:56:39;19.90;99.90
7046;DHT22;3564;53.326;10.356;2022-10-15T11:01:46;20.00;99.90
7046;DHT22;3564;53.326;10.356;2022-10-15T11:04:13;20.00;99.90
7046;DHT22;3564;53.326;10.356;2022-10-15T11:25:30;19.70;99.90
7046;DHT22;3564;53.326;10.356;2022-10-15T11:28:28;19.80;99.90
7046;DHT22;3564;53.326;10.356;2022-10-15T11:31:19;19.80;99.90
7046;DHT22;3564;53.326;10.356;2022-10-15T11:39:46;19.80;99.60
7046;DHT22;3564;53.326;10.356;2022-10-15T11:42:22;19.90;99.90
7046;DHT22;3564;53.326;10.356;2022-10-15T11:51:05;20.10;99.90
7046;DHT22;3564;53.326;10.356;2022-10-15T11:53:44;20.10;99.40
7046;DHT22;3564;53.326;10.356;2022-10-15T11:56:18;20.00;98.90
7046;DHT22;3564;53.326;10.356;2022-10-15T11:58:51;20.00;98.90
7046;DHT22;3564;53.326;10.356;2022-10-15T12:01:36;19.90;99.10
7046;DHT22;3564;53.326;10.356;2022-10-15T12:06:53;20.00;99.00
7046;DHT22;3564;53.326;10.356;2022-10-15T12:09:29;20.00;99.00
7046;DHT22;3564;53.326;10.356;2022-10-15T12:17:43;19.90;97.90
7046;DHT22;3564;53.326;10.356;2022-10-15T12:20:13;19.80;97.90
7046;DHT22;3564;53.326;10.356;2022-10-15T12:25:38;19.90;97.90
7046;DHT22;3564;53.326;10.356;2022-10-15T12:30:40;19.90;97.00
7046;DHT22;3564;53.326;10.356;2022-10-15T12:33:44;19.90;97.20
7046;DHT22;3564;53.326;10.356;2022-10-15T12:36:25;19.90;97.30
7046;DHT22;3564;53.326;10.356;2022-10-15T12:41:40;19.90;97.30
7046;DHT22;3564;53.326;10.356;2022-10-15T12:44:25;19.90;97.60
7046;DHT22;3564;53.326;10.356;2022-10-15T12:46:52;19.90;97.40
7046;DHT22;3564;53.326;10.356;2022-10-15T12:51:58;20.00;98.00
7046;DHT22;3564;53.326;10.356;2022-10-15T12:54:38;20.10;97.90
7046;DHT22;3564;53.326;10.356;2022-10-15T13:02:46;20.20;98.10
7046;DHT22;3564;53.326;10.356;2022-10-15T13:05:30;20.20;97.80
7046;DHT22;3564;53.326;10.356;2022-10-15T13:07:58;20.10;97.80
7046;DHT22;3564;53.326;10.356;2022-10-15T13:10:29;20.10;98.00
7046;DHT22;3564;53.326;10.356;2022-10-15T13:13:03;20.20;98.30
7046;DHT22;3564;53.326;10.356;2022-10-15T13:15:30;20.30;98.40
7046;DHT22;3564;53.326;10.356;2022-10-15T13:18:06;20.40;98.50
7046;DHT22;3564;53.326;10.356;2022-10-15T13:25:47;20.30;98.40
7046;DHT22;3564;53.326;10.356;2022-10-15T13:28:36;20.40;98.50
7046;DHT22;3564;53.326;10.356;2022-10-15T13:31:05;20.30;98.30
7046;DHT22;3564;53.326;10.356;2022-10-15T13:33:39;20.20;98.40
7046;DHT22;3564;53.326;10.356;2022-10-15T13:36:12;20.20;98.30
7046;DHT22;3564;53.326;10.356;2022-10-15T13:38:41;20.20;98.20
7046;DHT22;3564;53.326;10.356;2022-10-15T13:41:07;20.20;98.20
7046;DHT22;3564;53.326;10.356;2022-10-15T13:43:33;20.10;98.30
7046;DHT22;3564;53.326;10.356;2022-10-15T13:46:00;20.20;98.30
7046;DHT22;3564;53.326;10.356;2022-10-15T13:48:28;20.20;98.20
7046;DHT22;3564;53.326;10.356;2022-10-15T13:53:29;20.40;98.20
7046;DHT22;3564;53.326;10.356;2022-10-15T13:55:58;20.50;98.10
7046;DHT22;3564;53.326;10.356;2022-10-15T13:58:27;20.50;98.10
7046;DHT22;3564;53.326;10.356;2022-10-15T14:03:36;20.80;98.20
7046;DHT22;3564;53.326;10.356;2022-10-15T14:08:49;21.00;98.10
7046;DHT22;3564;53.326;10.356;2022-10-15T14:11:17;21.10;97.60
7046;DHT22;3564;53.326;10.356;2022-10-15T14:13:44;21.10;97.60
7046;DHT22;3564;53.326;10.356;2022-10-15T14:16:14;21.20;97.80
7046;DHT22;3564;53.326;10.356;2022-10-15T14:18:48;21.20;97.90
7046;DHT22;3564;53.326;10.356;2022-10-15T14:21:17;21.40;98.00
7046;DHT22;3564;53.326;10.356;2022-10-15T14:23:47;21.70;97.90
7046;DHT22;3564;53.326;10.356;2022-10-15T14:26:13;21.80;97.60
7046;DHT22;3564;53.326;10.356;2022-10-15T14:28:47;21.90;97.70
7046;DHT22;3564;53.326;10.356;2022-10-15T14:33:53;21.90;97.40
7046;DHT22;3564;53.326;10.356;2022-10-15T14:36:25;21.90;97.40
7046;DHT22;3564;53.326;10.356;2022-10-15T14:38:52;21.90;97.50
7046;DHT22;3564;53.326;10.356;2022-10-15T14:44:00;22.00;97.90
7046;DHT22;3564;53.326;10.356;2022-10-15T14:46:39;22.00;97.70
7046;DHT22;3564;53.326;10.356;2022-10-15T14:49:18;22.00;97.60
7046;DHT22;3564;53.326;10.356;2022-10-15T14:51:50;22.00;97.60
7046;DHT22;3564;53.326;10.356;2022-10-15T14:54:24;22.00;97.90
7046;DHT22;3564;53.326;10.356;2022-10-15T14:56:51;21.90;98.00
7046;DHT22;3564;53.326;10.356;2022-10-15T14:59:19;21.90;98.20
7046;DHT22;3564;53.326;10.356;2022-10-15T15:01:57;21.90;98.50
7046;DHT22;3564;53.326;10.356;2022-10-15T15:04:39;21.90;98.50
7046;DHT22;3564;53.326;10.356;2022-10-15T15:07:14;21.80;98.50
7046;DHT22;3564;53.326;10.356;2022-10-15T15:09:40;21.80;98.60
7046;DHT22;3564;53.326;10.356;2022-10-15T15:12:14;21.80;98.70
7046;DHT22;3564;53.326;10.356;2022-10-15T15:14:41;21.70;98.80
7046;DHT22;3564;53.326;10.356;2022-10-15T15:17:14;21.70;98.80
7046;DHT22;3564;53.326;10.356;2022-10-15T15:19:40;21.60;98.90
7046;DHT22;3564;53.326;10.356;2022-10-15T15:22:10;21.50;98.80
7046;DHT22;3564;53.326;10.356;2022-10-15T15:24:36;21.40;99.10
7046;DHT22;3564;53.326;10.356;2022-10-15T15:27:02;21.40;99.00
7046;DHT22;3564;53.326;10.356;2022-10-15T15:29:27;21.30;99.00
7046;DHT22;3564;53.326;10.356;2022-10-15T15:31:53;21.20;99.10
7046;DHT22;3564;53.326;10.356;2022-10-15T15:34:20;21.10;99.30
7046;DHT22;3564;53.326;10.356;2022-10-15T15:36:48;21.00;99.70
7046;DHT22;3564;53.326;10.356;2022-10-15T15:39:13;21.00;99.60
7046;DHT22;3564;53.326;10.356;2022-10-15T15:41:40;21.00;99.60
7046;DHT22;3564;53.326;10.356;2022-10-15T15:44:05;20.90;99.60
7046;DHT22;3564;53.326;10.356;2022-10-15T15:46:32;20.90;99.80
7046;DHT22;3564;53.326;10.356;2022-10-15T15:48:57;20.80;99.90
7046;DHT22;3564;53.326;10.356;2022-10-15T15:51:28;20.80;99.90
7046;DHT22;3564;53.326;10.356;2022-10-15T15:53:56;20.70;99.90
7046;DHT22;3564;53.326;10.356;2022-10-15T15:56:22;20.70;99.90
7046;DHT22;3564;53.326;10.356;2022-10-15T15:58:49;20.60;99.90
7046;DHT22;3564;53.326;10.356;2022-10-15T16:01:16;20.60;99.90
7046;DHT22;3564;53.326;10.356;2022-10-15T16:03:41;20.50;99.90
7046;DHT22;3564;53.326;10.356;2022-10-15T16:06:07;20.50;99.90
7046;DHT22;3564;53.326;10.356;2022-10-15T16:08:34;20.40;99.90
7046;DHT22;3564;53.326;10.356;2022-10-15T16:11:04;20.40;99.90
7046;DHT22;3564;53.326;10.356;2022-10-15T16:13:31;20.30;99.90
7046;DHT22;3564;53.326;10.356;2022-10-15T16:15:57;20.20;99.90
7046;DHT22;3564;53.326;10.356;2022-10-15T16:18:23;20.20;99.90
7046;DHT22;3564;53.326;10.356;2022-10-15T16:20:49;20.20;99.90
7046;DHT22;3564;53.326;10.356;2022-10-15T16:23:15;20.20;99.90
7046;DHT22;3564;53.326;10.356;2022-10-15T16:25:41;20.10;99.90
7046;DHT22;3564;53.326;10.356;2022-10-15T16:28:07;20.10;99.90
7046;DHT22;3564;53.326;10.356;2022-10-15T16:30:33;20.10;99.90
7046;DHT22;3564;53.326;10.356;2022-10-15T16:32:59;20.10;99.90
7046;DHT22;3564;53.326;10.356;2022-10-15T16:35:24;20.00;99.90
7046;DHT22;3564;53.326;10.356;2022-10-15T16:37:50;20.00;99.90
7046;DHT22;3564;53.326;10.356;2022-10-15T16:40:18;20.00;99.90
7046;DHT22;3564;53.326;10.356;2022-10-15T16:42:44;20.00;99.90
7046;DHT22;3564;53.326;10.356;2022-10-15T16:45:09;19.90;99.90
7046;DHT22;3564;53.326;10.356;2022-10-15T16:47:35;19.90;99.90
7046;DHT22;3564;53.326;10.356;2022-10-15T16:50:00;19.90;99.90
7046;DHT22;3564;53.326;10.356;2022-10-15T16:52:26;19.90;99.90
7046;DHT22;3564;53.326;10.356;2022-10-15T16:54:52;19.90;99.90
7046;DHT22;3564;53.326;10.356;2022-10-15T16:57:17;19.90;99.90
7046;DHT22;3564;53.326;10.356;2022-10-15T16:59:43;19.90;99.90
7046;DHT22;3564;53.326;10.356;2022-10-15T17:02:10;19.90;99.90
7046;DHT22;3564;53.326;10.356;2022-10-15T17:04:36;19.80;99.90
7046;DHT22;3564;53.326;10.356;2022-10-15T17:07:01;19.80;99.90
7046;DHT22;3564;53.326;10.356;2022-10-15T17:09:27;19.80;99.90
7046;DHT22;3564;53.326;10.356;2022-10-15T17:11:52;19.80;99.90
7046;DHT22;3564;53.326;10.356;2022-10-15T17:14:18;19.80;99.90
7046;DHT22;3564;53.326;10.356;2022-10-15T17:16:48;19.70;99.90
7046;DHT22;3564;53.326;10.356;2022-10-15T17:19:19;19.70;99.90
7046;DHT22;3564;53.326;10.356;2022-10-15T17:21:46;19.70;99.90
7046;DHT22;3564;53.326;10.356;2022-10-15T17:24:14;19.70;99.90
7046;DHT22;3564;53.326;10.356;2022-10-15T17:26:42;19.70;99.90
7046;DHT22;3564;53.326;10.356;2022-10-15T17:29:10;19.70;99.90
7046;DHT22;3564;53.326;10.356;2022-10-15T17:31:36;19.60;99.90
7046;DHT22;3564;53.326;10.356;2022-10-15T17:34:04;19.60;99.90
7046;DHT22;3564;53.326;10.356;2022-10-15T17:36:37;19.50;99.90
7046;DHT22;3564;53.326;10.356;2022-10-15T17:39:08;19.50;99.90
7046;DHT22;3564;53.326;10.356;2022-10-15T17:41:36;19.50;99.90
7046;DHT22;3564;53.326;10.356;2022-10-15T17:44:02;19.50;99.90
7046;DHT22;3564;53.326;10.356;2022-10-15T17:46:29;19.50;99.90
7046;DHT22;3564;53.326;10.356;2022-10-15T17:48:57;19.50;99.90
7046;DHT22;3564;53.326;10.356;2022-10-15T17:51:29;19.40;99.90
7046;DHT22;3564;53.326;10.356;2022-10-15T17:53:55;19.40;99.90
7046;DHT22;3564;53.326;10.356;2022-10-15T17:56:24;19.40;99.90
7046;DHT22;3564;53.326;10.356;2022-10-15T17:58:51;19.40;99.90
7046;DHT22;3564;53.326;10.356;2022-10-15T18:01:21;19.40;99.90
7046;DHT22;3564;53.326;10.356;2022-10-15T18:03:52;19.40;99.90
7046;DHT22;3564;53.326;10.356;2022-10-15T18:06:19;19.30;99.90
7046;DHT22;3564;53.326;10.356;2022-10-15T18:08:45;19.30;99.90